Terminal Aerodrome Forecast
Issued by NWS Riverton, WY

Home | Current Version | Previous Version | Text Only | Print | Product List | Glossary On
Versions: 1 2 3 4 5 6 7 8 9 10 11 12
365
FTUS45 KRIW 231121
TAFRIW
TAF
KRIW 231121Z 2312/2412 31009KT P6SM SKC
     FM231400 VRB05KT P6SM SCT120
     FM232000 28010KT P6SM SCT120 BKN200
     FM240000 VRB12G18KT P6SM VCTS SCT090CB BKN150
     FM240300 30011KT P6SM SCT100 BKN150=

USA.gov is the U.S. government's official web portal to all federal, state and local government web resources and services.